sensor_id;sensor_type;location;lat;lon;timestamp;pressure;altitude;pressure_sealevel;temperature;humidity
18821;BME280;9539;59.332;18.034;2023-02-17T00:01:16;100416.34;;;23.76;32.82
18821;BME280;9539;59.332;18.034;2023-02-17T00:03:40;100410.34;;;23.52;32.61
18821;BME280;9539;59.332;18.034;2023-02-17T00:06:05;100401.88;;;24.70;31.78
18821;BME280;9539;59.332;18.034;2023-02-17T00:08:27;100409.88;;;23.92;32.26
18821;BME280;9539;59.332;18.034;2023-02-17T00:10:56;100401.09;;;23.90;32.78
18821;BME280;9539;59.332;18.034;2023-02-17T00:13:20;100398.41;;;24.55;31.77
18821;BME280;9539;59.332;18.034;2023-02-17T00:15:42;100403.19;;;24.39;31.62
18821;BME280;9539;59.332;18.034;2023-02-17T00:18:04;100395.06;;;24.96;31.12
18821;BME280;9539;59.332;18.034;2023-02-17T00:20:28;100402.66;;;25.00;31.12
18821;BME280;9539;59.332;18.034;2023-02-17T00:22:50;100390.72;;;24.80;31.08
18821;BME280;9539;59.332;18.034;2023-02-17T00:25:12;100392.50;;;24.52;30.97
18821;BME280;9539;59.332;18.034;2023-02-17T00:27:34;100385.09;;;24.10;32.08
18821;BME280;9539;59.332;18.034;2023-02-17T00:29:58;100380.66;;;23.21;33.52
18821;BME280;9539;59.332;18.034;2023-02-17T00:32:20;100382.31;;;24.03;32.10
18821;BME280;9539;59.332;18.034;2023-02-17T00:34:42;100377.47;;;24.70;31.18
18821;BME280;9539;59.332;18.034;2023-02-17T00:37:04;100380.69;;;24.95;30.78
18821;BME280;9539;59.332;18.034;2023-02-17T00:39:26;100378.09;;;25.15;30.72
18821;BME280;9539;59.332;18.034;2023-02-17T00:41:48;100386.34;;;25.00;30.51
18821;BME280;9539;59.332;18.034;2023-02-17T00:44:14;100371.38;;;23.97;32.41
18821;BME280;9539;59.332;18.034;2023-02-17T00:46:39;100374.50;;;24.65;30.70
18821;BME280;9539;59.332;18.034;2023-02-17T00:49:01;100379.16;;;23.85;31.66
18821;BME280;9539;59.332;18.034;2023-02-17T00:51:23;100378.94;;;24.31;31.76
18821;BME280;9539;59.332;18.034;2023-02-17T00:53:45;100364.34;;;24.17;31.73
18821;BME280;9539;59.332;18.034;2023-02-17T00:56:08;100375.88;;;23.75;32.79
18821;BME280;9539;59.332;18.034;2023-02-17T00:58:30;100376.44;;;22.50;33.88
18821;BME280;9539;59.332;18.034;2023-02-17T01:00:54;100369.47;;;22.86;33.46
18821;BME280;9539;59.332;18.034;2023-02-17T01:03:18;100363.06;;;24.49;31.68
18821;BME280;9539;59.332;18.034;2023-02-17T01:05:40;100356.75;;;24.63;31.26
18821;BME280;9539;59.332;18.034;2023-02-17T01:08:03;100357.72;;;25.88;29.57
18821;BME280;9539;59.332;18.034;2023-02-17T01:10:25;100356.53;;;24.86;30.81
18821;BME280;9539;59.332;18.034;2023-02-17T01:12:47;100362.81;;;24.65;31.08
18821;BME280;9539;59.332;18.034;2023-02-17T01:15:09;100365.16;;;24.68;31.60
18821;BME280;9539;59.332;18.034;2023-02-17T01:17:31;100358.88;;;25.38;30.19
18821;BME280;9539;59.332;18.034;2023-02-17T01:19:54;100356.66;;;25.82;29.47
18821;BME280;9539;59.332;18.034;2023-02-17T01:22:17;100361.06;;;26.24;28.98
18821;BME280;9539;59.332;18.034;2023-02-17T01:24:39;100369.44;;;25.26;29.97
18821;BME280;9539;59.332;18.034;2023-02-17T01:27:01;100366.47;;;24.93;30.83
18821;BME280;9539;59.332;18.034;2023-02-17T01:29:23;100374.34;;;25.16;30.53
18821;BME280;9539;59.332;18.034;2023-02-17T01:31:45;100372.06;;;24.92;31.04
18821;BME280;9539;59.332;18.034;2023-02-17T01:34:09;100365.09;;;26.01;29.52
18821;BME280;9539;59.332;18.034;2023-02-17T01:36:32;100372.81;;;24.43;31.76
18821;BME280;9539;59.332;18.034;2023-02-17T01:38:54;100361.34;;;24.62;31.23
18821;BME280;9539;59.332;18.034;2023-02-17T01:41:19;100363.66;;;25.08;30.41
18821;BME280;9539;59.332;18.034;2023-02-17T01:43:42;100369.75;;;24.32;31.95
18821;BME280;9539;59.332;18.034;2023-02-17T01:46:05;100370.75;;;23.65;32.11
18821;BME280;9539;59.332;18.034;2023-02-17T01:48:29;100361.75;;;23.79;32.79
18821;BME280;9539;59.332;18.034;2023-02-17T01:50:53;100360.59;;;25.18;30.83
18821;BME280;9539;59.332;18.034;2023-02-17T01:53:19;100359.94;;;25.43;30.42
18821;BME280;9539;59.332;18.034;2023-02-17T01:55:43;100366.44;;;25.49;30.49
18821;BME280;9539;59.332;18.034;2023-02-17T01:58:07;100360.22;;;24.78;31.74
18821;BME280;9539;59.332;18.034;2023-02-17T02:00:30;100365.81;;;24.91;31.57
18821;BME280;9539;59.332;18.034;2023-02-17T02:02:53;100354.50;;;25.16;30.92
18821;BME280;9539;59.332;18.034;2023-02-17T02:05:17;100348.59;;;24.42;32.02
18821;BME280;9539;59.332;18.034;2023-02-17T02:07:41;100346.91;;;24.83;32.15
18821;BME280;9539;59.332;18.034;2023-02-17T02:10:08;100350.03;;;23.35;33.33
18821;BME280;9539;59.332;18.034;2023-02-17T02:12:33;100342.59;;;24.67;31.36
18821;BME280;9539;59.332;18.034;2023-02-17T02:14:57;100340.00;;;24.59;31.53
18821;BME280;9539;59.332;18.034;2023-02-17T02:17:29;100343.63;;;23.80;32.45
18821;BME280;9539;59.332;18.034;2023-02-17T02:20:24;100335.47;;;24.24;32.51
18821;BME280;9539;59.332;18.034;2023-02-17T02:23:03;100323.25;;;24.77;31.71
18821;BME280;9539;59.332;18.034;2023-02-17T02:28:26;100314.69;;;24.16;33.08
18821;BME280;9539;59.332;18.034;2023-02-17T02:31:07;100317.41;;;24.16;32.83
18821;BME280;9539;59.332;18.034;2023-02-17T02:33:39;100311.28;;;23.93;33.12
18821;BME280;9539;59.332;18.034;2023-02-17T02:36:08;100311.84;;;24.39;32.69
18821;BME280;9539;59.332;18.034;2023-02-17T02:38:37;100310.16;;;24.38;32.73
18821;BME280;9539;59.332;18.034;2023-02-17T02:41:04;100297.91;;;24.42;31.85
18821;BME280;9539;59.332;18.034;2023-02-17T02:43:29;100303.91;;;24.02;33.44
18821;BME280;9539;59.332;18.034;2023-02-17T02:45:51;100295.75;;;23.51;34.08
18821;BME280;9539;59.332;18.034;2023-02-17T02:48:14;100297.28;;;24.89;31.74
18821;BME280;9539;59.332;18.034;2023-02-17T02:50:51;100295.81;;;24.65;31.74
18821;BME280;9539;59.332;18.034;2023-02-17T02:53:40;100288.16;;;24.97;31.25
18821;BME280;9539;59.332;18.034;2023-02-17T02:56:09;100279.31;;;23.53;33.57
18821;BME280;9539;59.332;18.034;2023-02-17T02:58:37;100286.28;;;24.48;32.59
18821;BME280;9539;59.332;18.034;2023-02-17T03:01:08;100274.16;;;24.93;31.79
18821;BME280;9539;59.332;18.034;2023-02-17T03:03:38;100279.09;;;24.41;32.41
18821;BME280;9539;59.332;18.034;2023-02-17T03:06:08;100269.22;;;24.54;32.69
18821;BME280;9539;59.332;18.034;2023-02-17T03:08:36;100270.84;;;24.13;32.58
18821;BME280;9539;59.332;18.034;2023-02-17T03:10:59;100275.38;;;24.42;32.36
18821;BME280;9539;59.332;18.034;2023-02-17T03:13:21;100255.84;;;23.45;34.30
18821;BME280;9539;59.332;18.034;2023-02-17T03:15:44;100262.50;;;22.76;34.86
18821;BME280;9539;59.332;18.034;2023-02-17T03:18:06;100262.28;;;22.85;35.35
18821;BME280;9539;59.332;18.034;2023-02-17T03:20:31;100248.66;;;23.67;33.24
18821;BME280;9539;59.332;18.034;2023-02-17T03:22:56;100248.47;;;22.80;34.21
18821;BME280;9539;59.332;18.034;2023-02-17T03:25:18;100242.75;;;22.90;35.08
18821;BME280;9539;59.332;18.034;2023-02-17T03:27:40;100246.59;;;22.95;35.18
18821;BME280;9539;59.332;18.034;2023-02-17T03:30:06;100236.63;;;21.59;36.68
18821;BME280;9539;59.332;18.034;2023-02-17T03:32:28;100243.16;;;23.60;33.46
18821;BME280;9539;59.332;18.034;2023-02-17T03:34:50;100239.72;;;21.79;36.70
18821;BME280;9539;59.332;18.034;2023-02-17T03:37:12;100244.00;;;23.17;35.35
18821;BME280;9539;59.332;18.034;2023-02-17T03:39:35;100248.41;;;23.18;34.98
18821;BME280;9539;59.332;18.034;2023-02-17T03:41:57;100248.59;;;23.31;34.92
18821;BME280;9539;59.332;18.034;2023-02-17T03:44:19;100250.03;;;22.06;35.77
18821;BME280;9539;59.332;18.034;2023-02-17T03:46:41;100250.53;;;22.70;35.35
18821;BME280;9539;59.332;18.034;2023-02-17T03:49:03;100241.75;;;23.35;34.90
18821;BME280;9539;59.332;18.034;2023-02-17T03:51:25;100242.44;;;24.73;32.78
18821;BME280;9539;59.332;18.034;2023-02-17T03:53:48;100241.84;;;24.49;32.48
18821;BME280;9539;59.332;18.034;2023-02-17T03:56:12;100251.88;;;25.32;31.70
18821;BME280;9539;59.332;18.034;2023-02-17T03:58:35;100248.00;;;24.37;33.34
18821;BME280;9539;59.332;18.034;2023-02-17T04:00:57;100231.09;;;23.77;33.65
18821;BME280;9539;59.332;18.034;2023-02-17T04:03:19;100231.13;;;23.19;34.26
18821;BME280;9539;59.332;18.034;2023-02-17T04:05:43;100227.81;;;24.46;32.22
18821;BME280;9539;59.332;18.034;2023-02-17T04:08:05;100237.72;;;24.81;32.28
18821;BME280;9539;59.332;18.034;2023-02-17T04:10:27;100238.06;;;24.72;32.42
18821;BME280;9539;59.332;18.034;2023-02-17T04:12:50;100235.13;;;23.08;33.97
18821;BME280;9539;59.332;18.034;2023-02-17T04:15:13;100227.59;;;24.05;33.21
18821;BME280;9539;59.332;18.034;2023-02-17T04:17:35;100218.78;;;24.88;31.90
18821;BME280;9539;59.332;18.034;2023-02-17T04:19:57;100217.06;;;25.08;31.71
18821;BME280;9539;59.332;18.034;2023-02-17T04:22:19;100222.97;;;25.59;31.24
18821;BME280;9539;59.332;18.034;2023-02-17T04:24:41;100211.88;;;26.41;30.42
18821;BME280;9539;59.332;18.034;2023-02-17T04:27:04;100199.50;;;26.65;29.83
18821;BME280;9539;59.332;18.034;2023-02-17T04:29:27;100201.38;;;26.84;29.34
18821;BME280;9539;59.332;18.034;2023-02-17T04:31:49;100193.47;;;26.70;29.88
18821;BME280;9539;59.332;18.034;2023-02-17T04:34:11;100187.16;;;26.95;29.37
18821;BME280;9539;59.332;18.034;2023-02-17T04:36:33;100199.50;;;26.65;29.10
18821;BME280;9539;59.332;18.034;2023-02-17T04:38:55;100192.84;;;26.41;29.89
18821;BME280;9539;59.332;18.034;2023-02-17T04:41:17;100187.81;;;27.42;28.67
18821;BME280;9539;59.332;18.034;2023-02-17T04:43:39;100188.53;;;27.75;28.37
18821;BME280;9539;59.332;18.034;2023-02-17T04:46:02;100181.47;;;26.84;28.88
18821;BME280;9539;59.332;18.034;2023-02-17T04:48:24;100184.44;;;26.89;29.35
18821;BME280;9539;59.332;18.034;2023-02-17T04:50:46;100183.19;;;26.45;29.73
18821;BME280;9539;59.332;18.034;2023-02-17T04:53:08;100173.13;;;26.13;30.03
18821;BME280;9539;59.332;18.034;2023-02-17T04:55:30;100186.31;;;26.09;30.37
18821;BME280;9539;59.332;18.034;2023-02-17T04:57:52;100179.41;;;26.20;30.29
18821;BME280;9539;59.332;18.034;2023-02-17T05:00:15;100170.84;;;26.16;30.65
18821;BME280;9539;59.332;18.034;2023-02-17T05:02:38;100168.75;;;26.32;29.88
18821;BME280;9539;59.332;18.034;2023-02-17T05:05:00;100163.72;;;26.09;29.94
18821;BME280;9539;59.332;18.034;2023-02-17T05:07:22;100164.25;;;25.17;31.75
18821;BME280;9539;59.332;18.034;2023-02-17T05:09:44;100163.34;;;23.99;33.09
18821;BME280;9539;59.332;18.034;2023-02-17T05:12:06;100164.34;;;25.37;31.36
18821;BME280;9539;59.332;18.034;2023-02-17T05:14:29;100155.53;;;25.89;30.90
18821;BME280;9539;59.332;18.034;2023-02-17T05:16:51;100162.44;;;25.85;30.84
18821;BME280;9539;59.332;18.034;2023-02-17T05:19:14;100154.41;;;25.09;32.21
18821;BME280;9539;59.332;18.034;2023-02-17T05:21:36;100147.22;;;26.37;30.54
18821;BME280;9539;59.332;18.034;2023-02-17T05:23:58;100150.81;;;25.50;31.14
18821;BME280;9539;59.332;18.034;2023-02-17T05:26:20;100152.94;;;23.81;33.41
18821;BME280;9539;59.332;18.034;2023-02-17T05:28:43;100154.34;;;25.44;31.78
18821;BME280;9539;59.332;18.034;2023-02-17T05:31:05;100143.97;;;27.05;29.90
18821;BME280;9539;59.332;18.034;2023-02-17T05:33:27;100149.41;;;25.67;30.80
18821;BME280;9539;59.332;18.034;2023-02-17T05:35:50;100144.50;;;26.37;30.48
18821;BME280;9539;59.332;18.034;2023-02-17T05:38:12;100143.38;;;25.78;30.24
18821;BME280;9539;59.332;18.034;2023-02-17T05:40:34;100133.16;;;26.00;30.77
18821;BME280;9539;59.332;18.034;2023-02-17T05:42:56;100128.53;;;25.81;31.35
18821;BME280;9539;59.332;18.034;2023-02-17T05:45:18;100119.59;;;25.26;32.10
18821;BME280;9539;59.332;18.034;2023-02-17T05:47:40;100112.88;;;25.83;31.22
18821;BME280;9539;59.332;18.034;2023-02-17T05:50:02;100108.06;;;25.78;30.79
18821;BME280;9539;59.332;18.034;2023-02-17T05:52:26;100106.16;;;26.58;30.16
18821;BME280;9539;59.332;18.034;2023-02-17T05:54:48;100112.25;;;26.47;29.97
18821;BME280;9539;59.332;18.034;2023-02-17T05:57:10;100109.50;;;25.87;30.89
18821;BME280;9539;59.332;18.034;2023-02-17T05:59:32;100109.97;;;26.44;29.77
18821;BME280;9539;59.332;18.034;2023-02-17T06:01:54;100104.84;;;27.38;29.01
18821;BME280;9539;59.332;18.034;2023-02-17T06:04:16;100100.69;;;26.64;29.34
18821;BME280;9539;59.332;18.034;2023-02-17T06:06:38;100098.88;;;25.86;30.70
18821;BME280;9539;59.332;18.034;2023-02-17T06:09:01;100095.06;;;26.53;30.04
18821;BME280;9539;59.332;18.034;2023-02-17T06:11:23;100092.75;;;26.70;29.95
18821;BME280;9539;59.332;18.034;2023-02-17T06:13:45;100095.16;;;27.04;29.38
18821;BME280;9539;59.332;18.034;2023-02-17T06:16:08;100090.06;;;26.56;29.44
18821;BME280;9539;59.332;18.034;2023-02-17T06:18:30;100089.34;;;26.87;29.49
18821;BME280;9539;59.332;18.034;2023-02-17T06:20:53;100087.53;;;26.61;29.82
18821;BME280;9539;59.332;18.034;2023-02-17T06:23:15;100091.88;;;26.95;29.60
18821;BME280;9539;59.332;18.034;2023-02-17T06:25:39;100077.53;;;26.22;30.25
18821;BME280;9539;59.332;18.034;2023-02-17T06:28:01;100092.38;;;25.80;30.63
18821;BME280;9539;59.332;18.034;2023-02-17T06:30:23;100077.84;;;27.68;28.46
18821;BME280;9539;59.332;18.034;2023-02-17T06:32:45;100072.28;;;27.50;28.72
18821;BME280;9539;59.332;18.034;2023-02-17T06:35:07;100069.09;;;27.66;28.40
18821;BME280;9539;59.332;18.034;2023-02-17T06:37:29;100062.53;;;26.84;29.67
18821;BME280;9539;59.332;18.034;2023-02-17T06:39:51;100060.97;;;26.57;29.61
18821;BME280;9539;59.332;18.034;2023-02-17T06:42:15;100056.06;;;26.79;29.39
18821;BME280;9539;59.332;18.034;2023-02-17T06:44:37;100057.53;;;23.85;33.71
18821;BME280;9539;59.332;18.034;2023-02-17T06:46:59;100060.38;;;25.82;30.89
18821;BME280;9539;59.332;18.034;2023-02-17T06:49:21;100062.38;;;25.41;31.33
18821;BME280;9539;59.332;18.034;2023-02-17T06:51:43;100046.59;;;25.77;30.82
18821;BME280;9539;59.332;18.034;2023-02-17T06:54:05;100056.81;;;25.95;30.15
18821;BME280;9539;59.332;18.034;2023-02-17T06:56:27;100040.97;;;26.96;29.85
18821;BME280;9539;59.332;18.034;2023-02-17T06:58:50;100043.75;;;26.76;29.65
18821;BME280;9539;59.332;18.034;2023-02-17T07:01:17;100043.34;;;26.66;29.22
18821;BME280;9539;59.332;18.034;2023-02-17T07:03:39;100041.38;;;25.02;31.70
18821;BME280;9539;59.332;18.034;2023-02-17T07:06:01;100026.19;;;24.66;32.56
18821;BME280;9539;59.332;18.034;2023-02-17T07:08:23;100029.13;;;25.13;32.23
18821;BME280;9539;59.332;18.034;2023-02-17T07:10:45;100021.69;;;26.00;30.55
18821;BME280;9539;59.332;18.034;2023-02-17T07:13:07;100027.91;;;25.41;31.28
18821;BME280;9539;59.332;18.034;2023-02-17T07:15:31;100023.56;;;25.93;30.64
18821;BME280;9539;59.332;18.034;2023-02-17T07:17:52;100014.66;;;26.70;29.68
18821;BME280;9539;59.332;18.034;2023-02-17T07:20:17;100019.41;;;25.64;30.95
18821;BME280;9539;59.332;18.034;2023-02-17T07:22:39;100009.97;;;26.13;30.45
18821;BME280;9539;59.332;18.034;2023-02-17T07:25:01;100008.75;;;25.63;30.84
18821;BME280;9539;59.332;18.034;2023-02-17T07:27:23;100007.06;;;25.88;30.51
18821;BME280;9539;59.332;18.034;2023-02-17T07:29:45;100000.75;;;25.41;31.00
18821;BME280;9539;59.332;18.034;2023-02-17T07:32:08;99987.69;;;26.62;29.88
18821;BME280;9539;59.332;18.034;2023-02-17T07:34:30;99981.53;;;26.02;29.95
18821;BME280;9539;59.332;18.034;2023-02-17T07:36:52;99975.09;;;27.12;29.13
18821;BME280;9539;59.332;18.034;2023-02-17T07:39:14;99973.63;;;25.68;30.20
18821;BME280;9539;59.332;18.034;2023-02-17T07:41:36;99961.91;;;25.61;31.04
18821;BME280;9539;59.332;18.034;2023-02-17T07:43:58;99970.38;;;26.50;29.54
18821;BME280;9539;59.332;18.034;2023-02-17T07:46:21;99960.84;;;25.35;30.93
18821;BME280;9539;59.332;18.034;2023-02-17T07:48:45;99959.19;;;25.87;30.64
18821;BME280;9539;59.332;18.034;2023-02-17T07:51:13;99957.41;;;27.77;27.69
18821;BME280;9539;59.332;18.034;2023-02-17T07:53:36;99946.53;;;26.32;29.86
18821;BME280;9539;59.332;18.034;2023-02-17T07:55:58;99947.53;;;26.57;29.79
18821;BME280;9539;59.332;18.034;2023-02-17T07:58:22;99941.44;;;27.00;28.93
18821;BME280;9539;59.332;18.034;2023-02-17T08:00:44;99930.75;;;26.98;28.82
18821;BME280;9539;59.332;18.034;2023-02-17T08:03:06;99916.34;;;26.91;29.06
18821;BME280;9539;59.332;18.034;2023-02-17T08:05:31;99902.66;;;26.15;29.48
18821;BME280;9539;59.332;18.034;2023-02-17T08:07:53;99904.97;;;27.32;28.59
18821;BME280;9539;59.332;18.034;2023-02-17T08:10:29;99899.31;;;27.34;28.45
18821;BME280;9539;59.332;18.034;2023-02-17T08:13:10;99890.56;;;27.25;28.78
18821;BME280;9539;59.332;18.034;2023-02-17T08:15:40;99879.28;;;27.90;27.77
18821;BME280;9539;59.332;18.034;2023-02-17T08:18:02;99882.00;;;27.90;27.83
18821;BME280;9539;59.332;18.034;2023-02-17T08:20:25;99888.44;;;27.02;27.68
18821;BME280;9539;59.332;18.034;2023-02-17T08:22:49;99884.84;;;27.58;27.27
18821;BME280;9539;59.332;18.034;2023-02-17T08:25:11;99891.69;;;26.42;29.21
18821;BME280;9539;59.332;18.034;2023-02-17T08:27:33;99882.31;;;28.00;27.64
18821;BME280;9539;59.332;18.034;2023-02-17T08:29:55;99881.31;;;27.76;27.46
18821;BME280;9539;59.332;18.034;2023-02-17T08:32:17;99882.00;;;27.90;27.46
18821;BME280;9539;59.332;18.034;2023-02-17T08:34:39;99876.97;;;27.43;28.48
18821;BME280;9539;59.332;18.034;2023-02-17T08:37:01;99883.31;;;28.23;27.05
18821;BME280;9539;59.332;18.034;2023-02-17T08:39:25;99881.03;;;28.20;27.20
18821;BME280;9539;59.332;18.034;2023-02-17T08:41:47;99877.69;;;27.82;27.57
18821;BME280;9539;59.332;18.034;2023-02-17T08:44:11;99869.81;;;27.49;27.74
18821;BME280;9539;59.332;18.034;2023-02-17T08:46:34;99865.25;;;29.00;26.40
18821;BME280;9539;59.332;18.034;2023-02-17T08:48:56;99869.13;;;28.93;26.56
18821;BME280;9539;59.332;18.034;2023-02-17T08:51:20;99862.03;;;28.62;26.78
18821;BME280;9539;59.332;18.034;2023-02-17T08:53:45;99857.72;;;26.00;29.21
18821;BME280;9539;59.332;18.034;2023-02-17T08:56:09;99853.28;;;27.44;28.12
18821;BME280;9539;59.332;18.034;2023-02-17T08:58:31;99839.88;;;27.42;27.94
18821;BME280;9539;59.332;18.034;2023-02-17T09:00:53;99837.00;;;27.37;28.28
18821;BME280;9539;59.332;18.034;2023-02-17T09:03:15;99827.16;;;23.38;32.22
18821;BME280;9539;59.332;18.034;2023-02-17T09:05:37;99828.78;;;23.04;33.33
18821;BME280;9539;59.332;18.034;2023-02-17T09:07:59;99821.31;;;23.41;33.07
18821;BME280;9539;59.332;18.034;2023-02-17T09:10:21;99820.06;;;23.09;33.77
18821;BME280;9539;59.332;18.034;2023-02-17T09:12:44;99820.09;;;23.71;33.57
18821;BME280;9539;59.332;18.034;2023-02-17T09:15:07;99813.03;;;23.15;33.83
18821;BME280;9539;59.332;18.034;2023-02-17T09:17:29;99818.31;;;24.52;32.07
18821;BME280;9539;59.332;18.034;2023-02-17T09:19:51;99812.03;;;22.52;34.35
18821;BME280;9539;59.332;18.034;2023-02-17T09:22:14;99801.81;;;23.18;33.39
18821;BME280;9539;59.332;18.034;2023-02-17T09:24:36;99797.25;;;23.94;32.60
18821;BME280;9539;59.332;18.034;2023-02-17T09:27:00;99789.44;;;23.08;34.30
18821;BME280;9539;59.332;18.034;2023-02-17T09:29:24;99790.69;;;23.68;33.63
18821;BME280;9539;59.332;18.034;2023-02-17T09:31:46;99784.03;;;23.71;33.07
18821;BME280;9539;59.332;18.034;2023-02-17T09:34:08;99778.22;;;21.69;36.33
18821;BME280;9539;59.332;18.034;2023-02-17T09:36:33;99763.44;;;22.80;34.17
18821;BME280;9539;59.332;18.034;2023-02-17T09:38:58;99755.19;;;22.88;33.97
18821;BME280;9539;59.332;18.034;2023-02-17T09:41:23;99748.06;;;23.83;33.27
18821;BME280;9539;59.332;18.034;2023-02-17T09:43:47;99735.09;;;24.92;31.89
18821;BME280;9539;59.332;18.034;2023-02-17T09:46:15;99728.41;;;24.75;31.06
18821;BME280;9539;59.332;18.034;2023-02-17T09:48:38;99725.06;;;24.53;32.43
18821;BME280;9539;59.332;18.034;2023-02-17T09:51:04;99720.13;;;23.01;33.82
18821;BME280;9539;59.332;18.034;2023-02-17T09:53:30;99716.09;;;24.40;32.20
18821;BME280;9539;59.332;18.034;2023-02-17T09:55:57;99710.66;;;23.25;34.15
18821;BME280;9539;59.332;18.034;2023-02-17T09:58:22;99695.56;;;23.98;33.29
18821;BME280;9539;59.332;18.034;2023-02-17T10:00:49;99685.09;;;23.34;33.66
18821;BME280;9539;59.332;18.034;2023-02-17T10:03:16;99681.22;;;23.08;34.50
18821;BME280;9539;59.332;18.034;2023-02-17T10:05:44;99661.47;;;22.03;35.41
18821;BME280;9539;59.332;18.034;2023-02-17T10:08:09;99651.50;;;20.73;37.98
18821;BME280;9539;59.332;18.034;2023-02-17T10:10:38;99647.28;;;21.80;35.85
18821;BME280;9539;59.332;18.034;2023-02-17T10:13:03;99641.78;;;22.86;34.42
18821;BME280;9539;59.332;18.034;2023-02-17T10:15:29;99632.28;;;22.41;34.93
18821;BME280;9539;59.332;18.034;2023-02-17T10:17:55;99626.69;;;21.79;36.32
18821;BME280;9539;59.332;18.034;2023-02-17T10:20:22;99634.09;;;22.62;34.51
18821;BME280;9539;59.332;18.034;2023-02-17T10:22:49;99620.88;;;21.97;35.79
18821;BME280;9539;59.332;18.034;2023-02-17T10:25:14;99606.59;;;22.58;33.90
18821;BME280;9539;59.332;18.034;2023-02-17T10:27:41;99612.41;;;23.92;32.69
18821;BME280;9539;59.332;18.034;2023-02-17T10:30:15;99596.28;;;23.03;33.93
18821;BME280;9539;59.332;18.034;2023-02-17T10:32:48;99584.88;;;23.81;32.69
18821;BME280;9539;59.332;18.034;2023-02-17T10:35:15;99578.38;;;23.56;33.18
18821;BME280;9539;59.332;18.034;2023-02-17T10:37:44;99555.25;;;22.30;34.41
18821;BME280;9539;59.332;18.034;2023-02-17T10:40:11;99555.78;;;23.29;33.55
18821;BME280;9539;59.332;18.034;2023-02-17T10:42:37;99559.63;;;21.40;35.80
18821;BME280;9539;59.332;18.034;2023-02-17T10:45:02;99547.97;;;22.59;34.31
18821;BME280;9539;59.332;18.034;2023-02-17T10:47:25;99540.50;;;22.61;35.25
18821;BME280;9539;59.332;18.034;2023-02-17T10:49:50;99537.94;;;21.12;36.80
18821;BME280;9539;59.332;18.034;2023-02-17T10:52:16;99516.78;;;21.30;36.93
18821;BME280;9539;59.332;18.034;2023-02-17T10:54:45;99510.50;;;21.44;36.71
18821;BME280;9539;59.332;18.034;2023-02-17T10:57:10;99496.69;;;22.38;33.80
18821;BME280;9539;59.332;18.034;2023-02-17T10:59:35;99486.75;;;22.45;34.64
18821;BME280;9539;59.332;18.034;2023-02-17T11:02:13;99474.63;;;22.75;34.73
18821;BME280;9539;59.332;18.034;2023-02-17T11:04:40;99472.34;;;21.75;36.21
18821;BME280;9539;59.332;18.034;2023-02-17T11:07:08;99471.41;;;19.43;38.32
18821;BME280;9539;59.332;18.034;2023-02-17T11:09:32;99447.50;;;20.59;37.17
18821;BME280;9539;59.332;18.034;2023-02-17T11:11:59;99436.94;;;21.36;36.29
18821;BME280;9539;59.332;18.034;2023-02-17T11:14:25;99427.09;;;22.53;35.68
18821;BME280;9539;59.332;18.034;2023-02-17T11:16:53;99416.66;;;19.73;38.44
18821;BME280;9539;59.332;18.034;2023-02-17T11:19:21;99424.72;;;21.68;36.47
18821;BME280;9539;59.332;18.034;2023-02-17T11:21:45;99410.63;;;21.72;35.40
18821;BME280;9539;59.332;18.034;2023-02-17T11:24:10;99396.06;;;20.96;37.14
18821;BME280;9539;59.332;18.034;2023-02-17T11:26:33;99390.22;;;19.91;38.18
18821;BME280;9539;59.332;18.034;2023-02-17T11:29:08;99385.25;;;20.75;37.90
18821;BME280;9539;59.332;18.034;2023-02-17T11:31:30;99374.78;;;19.71;38.99
18821;BME280;9539;59.332;18.034;2023-02-17T11:33:54;99366.53;;;20.88;37.16
18821;BME280;9539;59.332;18.034;2023-02-17T11:36:22;99365.72;;;19.34;39.87
18821;BME280;9539;59.332;18.034;2023-02-17T11:38:45;99368.00;;;20.19;38.91
18821;BME280;9539;59.332;18.034;2023-02-17T11:41:07;99357.72;;;19.78;39.61
18821;BME280;9539;59.332;18.034;2023-02-17T11:43:30;99352.28;;;19.57;38.86
18821;BME280;9539;59.332;18.034;2023-02-17T11:46:01;99346.69;;;19.73;38.92
18821;BME280;9539;59.332;18.034;2023-02-17T11:48:49;99345.66;;;20.97;37.18
18821;BME280;9539;59.332;18.034;2023-02-17T11:51:18;99355.72;;;20.31;37.70
18821;BME280;9539;59.332;18.034;2023-02-17T11:53:52;99341.31;;;20.03;38.53
18821;BME280;9539;59.332;18.034;2023-02-17T11:56:18;99338.84;;;18.74;41.05
18821;BME280;9539;59.332;18.034;2023-02-17T11:59:07;99323.78;;;19.25;39.30
18821;BME280;9539;59.332;18.034;2023-02-17T12:01:49;99308.38;;;20.58;37.18
18821;BME280;9539;59.332;18.034;2023-02-17T12:04:24;99281.56;;;19.63;37.92
18821;BME280;9539;59.332;18.034;2023-02-17T12:06:56;99287.09;;;20.42;37.03
18821;BME280;9539;59.332;18.034;2023-02-17T12:09:30;99278.50;;;21.02;36.74
18821;BME280;9539;59.332;18.034;2023-02-17T12:12:01;99274.72;;;20.47;37.13
18821;BME280;9539;59.332;18.034;2023-02-17T12:14:38;99239.44;;;18.59;40.26
18821;BME280;9539;59.332;18.034;2023-02-17T12:17:13;99236.50;;;19.50;38.95
18821;BME280;9539;59.332;18.034;2023-02-17T12:19:43;99237.97;;;18.26;41.60
18821;BME280;9539;59.332;18.034;2023-02-17T12:22:17;99221.22;;;19.13;39.05
18821;BME280;9539;59.332;18.034;2023-02-17T12:27:31;99191.69;;;20.85;37.31
18821;BME280;9539;59.332;18.034;2023-02-17T12:30:11;99186.50;;;19.77;37.24
18821;BME280;9539;59.332;18.034;2023-02-17T12:32:51;99185.16;;;18.18;41.50
18821;BME280;9539;59.332;18.034;2023-02-17T12:35:21;99171.84;;;20.22;36.68
18821;BME280;9539;59.332;18.034;2023-02-17T12:37:48;99176.25;;;18.63;39.16
18821;BME280;9539;59.332;18.034;2023-02-17T12:40:24;99154.59;;;19.24;39.63
18821;BME280;9539;59.332;18.034;2023-02-17T12:42:53;99146.84;;;18.24;41.83
18821;BME280;9539;59.332;18.034;2023-02-17T12:45:20;99145.28;;;19.26;39.75
18821;BME280;9539;59.332;18.034;2023-02-17T12:47:49;99135.16;;;18.92;39.54